sensor_id;sensor_type;location;lat;lon;timestamp;pressure;altitude;pressure_sealevel;temperature;humidity
57192;BME280;43052;52.588;13.396;2022-09-21T00:00:41;101981.41;;;6.75;78.61
57192;BME280;43052;52.588;13.396;2022-09-21T00:03:07;101985.69;;;6.73;78.48
57192;BME280;43052;52.588;13.396;2022-09-21T00:05:33;101981.41;;;6.75;78.87
57192;BME280;43052;52.588;13.396;2022-09-21T00:07:59;101996.16;;;6.76;78.49
57192;BME280;43052;52.588;13.396;2022-09-21T00:10:25;101982.16;;;6.71;78.68
57192;BME280;43052;52.588;13.396;2022-09-21T00:12:51;101991.78;;;6.75;78.37
57192;BME280;43052;52.588;13.396;2022-09-21T00:15:17;101982.25;;;6.74;78.58
57192;BME280;43052;52.588;13.396;2022-09-21T00:17:43;101988.22;;;6.71;78.32
57192;BME280;43052;52.588;13.396;2022-09-21T00:20:09;101994.19;;;6.67;78.66
57192;BME280;43052;52.588;13.396;2022-09-21T00:22:34;101993.28;;;6.67;78.37
57192;BME280;43052;52.588;13.396;2022-09-21T00:25:00;101993.22;;;6.64;78.67
57192;BME280;43052;52.588;13.396;2022-09-21T00:27:30;101987.19;;;6.65;78.88
57192;BME280;43052;52.588;13.396;2022-09-21T00:29:57;101990.63;;;6.64;78.83
57192;BME280;43052;52.588;13.396;2022-09-21T00:32:23;101992.31;;;6.63;78.89
57192;BME280;43052;52.588;13.396;2022-09-21T00:34:51;101990.69;;;6.67;79.00
57192;BME280;43052;52.588;13.396;2022-09-21T00:37:18;101994.09;;;6.64;79.01
57192;BME280;43052;52.588;13.396;2022-09-21T00:39:43;101997.63;;;6.66;78.91
57192;BME280;43052;52.588;13.396;2022-09-21T00:42:09;101992.38;;;6.65;78.89
57192;BME280;43052;52.588;13.396;2022-09-21T00:44:35;101999.28;;;6.64;78.64
57192;BME280;43052;52.588;13.396;2022-09-21T00:47:08;101997.50;;;6.63;78.75
57192;BME280;43052;52.588;13.396;2022-09-21T00:49:34;101994.00;;;6.61;79.14
57192;BME280;43052;52.588;13.396;2022-09-21T00:52:02;101988.75;;;6.59;78.78
57192;BME280;43052;52.588;13.396;2022-09-21T00:54:35;101998.41;;;6.64;79.04
57192;BME280;43052;52.588;13.396;2022-09-21T00:57:02;101980.91;;;6.58;79.04
57192;BME280;43052;52.588;13.396;2022-09-21T00:59:30;101999.28;;;6.64;78.61
57192;BME280;43052;52.588;13.396;2022-09-21T01:01:57;101995.59;;;6.57;78.78
57192;BME280;43052;52.588;13.396;2022-09-21T01:04:22;102000.91;;;6.61;78.69
57192;BME280;43052;52.588;13.396;2022-09-21T01:06:49;102006.94;;;6.59;78.85
57192;BME280;43052;52.588;13.396;2022-09-21T01:09:15;102004.31;;;6.58;78.88
57192;BME280;43052;52.588;13.396;2022-09-21T01:11:57;101997.19;;;6.52;78.60
57192;BME280;43052;52.588;13.396;2022-09-21T01:17:10;102001.44;;;6.50;78.29
57192;BME280;43052;52.588;13.396;2022-09-21T01:23:09;102002.91;;;6.40;78.57
57192;BME280;43052;52.588;13.396;2022-09-21T01:25:52;102007.13;;;6.37;78.76
57192;BME280;43052;52.588;13.396;2022-09-21T01:28:25;102011.41;;;6.36;78.64
57192;BME280;43052;52.588;13.396;2022-09-21T01:30:56;102018.31;;;6.34;78.45
57192;BME280;43052;52.588;13.396;2022-09-21T01:33:26;102019.06;;;6.32;78.61
57192;BME280;43052;52.588;13.396;2022-09-21T01:35:57;102016.41;;;6.30;79.03
57192;BME280;43052;52.588;13.396;2022-09-21T01:38:34;102018.16;;;6.30;79.29
57192;BME280;43052;52.588;13.396;2022-09-21T01:41:04;102010.25;;;6.26;79.12
57192;BME280;43052;52.588;13.396;2022-09-21T01:43:34;102012.16;;;6.32;79.29
57192;BME280;43052;52.588;13.396;2022-09-21T01:46:01;102015.63;;;6.33;78.84
57192;BME280;43052;52.588;13.396;2022-09-21T01:48:31;102011.19;;;6.29;79.18
57192;BME280;43052;52.588;13.396;2022-09-21T01:51:00;102006.72;;;6.24;78.89
57192;BME280;43052;52.588;13.396;2022-09-21T01:53:32;102014.63;;;6.27;79.10
57192;BME280;43052;52.588;13.396;2022-09-21T01:56:05;102012.84;;;6.26;78.92
57192;BME280;43052;52.588;13.396;2022-09-21T01:58:46;102007.53;;;6.23;78.82
57192;BME280;43052;52.588;13.396;2022-09-21T02:01:16;102011.88;;;6.23;78.70
57192;BME280;43052;52.588;13.396;2022-09-21T02:03:48;102014.47;;;6.23;78.95
57192;BME280;43052;52.588;13.396;2022-09-21T02:06:15;102007.34;;;6.17;78.85
57192;BME280;43052;52.588;13.396;2022-09-21T02:08:42;102013.41;;;6.18;79.00
57192;BME280;43052;52.588;13.396;2022-09-21T02:11:08;102015.09;;;6.16;78.74
57192;BME280;43052;52.588;13.396;2022-09-21T02:13:37;102016.75;;;6.14;78.89
57192;BME280;43052;52.588;13.396;2022-09-21T02:21:32;102012.88;;;6.01;78.91
57192;BME280;43052;52.588;13.396;2022-09-21T02:26:52;102028.56;;;6.04;78.88
57192;BME280;43052;52.588;13.396;2022-09-21T02:29:27;102021.53;;;6.01;78.79
57192;BME280;43052;52.588;13.396;2022-09-21T02:32:05;102023.38;;;6.04;79.09
57192;BME280;43052;52.588;13.396;2022-09-21T02:34:42;102021.53;;;6.01;78.85
57192;BME280;43052;52.588;13.396;2022-09-21T02:37:16;102024.97;;;6.00;78.95
57192;BME280;43052;52.588;13.396;2022-09-21T02:39:59;102019.75;;;6.00;79.10
57192;BME280;43052;52.588;13.396;2022-09-21T02:42:30;102026.63;;;5.98;79.06
57192;BME280;43052;52.588;13.396;2022-09-21T02:47:38;102028.31;;;5.97;79.18
57192;BME280;43052;52.588;13.396;2022-09-21T02:50:11;102024.88;;;5.99;78.93
57192;BME280;43052;52.588;13.396;2022-09-21T02:52:40;102025.72;;;5.97;78.99
57192;BME280;43052;52.588;13.396;2022-09-21T02:55:08;102024.88;;;5.99;79.08
57192;BME280;43052;52.588;13.396;2022-09-21T02:57:35;102035.22;;;5.97;79.14
57192;BME280;43052;52.588;13.396;2022-09-21T03:00:02;102034.31;;;5.96;78.86
57192;BME280;43052;52.588;13.396;2022-09-21T03:02:42;102028.94;;;5.90;78.90
57192;BME280;43052;52.588;13.396;2022-09-21T03:05:10;102035.22;;;5.97;78.95
57192;BME280;43052;52.588;13.396;2022-09-21T03:07:35;102037.22;;;6.04;79.14
57192;BME280;43052;52.588;13.396;2022-09-21T03:10:01;102032.38;;;6.15;79.25
57192;BME280;43052;52.588;13.396;2022-09-21T03:12:26;102046.91;;;6.36;79.25
57192;BME280;43052;52.588;13.396;2022-09-21T03:14:52;102036.22;;;6.54;78.86
57192;BME280;43052;52.588;13.396;2022-09-21T03:17:17;102048.97;;;6.73;78.70
57192;BME280;43052;52.588;13.396;2022-09-21T03:19:43;102044.88;;;6.82;78.88
57192;BME280;43052;52.588;13.396;2022-09-21T03:22:08;102039.25;;;6.97;78.95
57192;BME280;43052;52.588;13.396;2022-09-21T03:24:33;102049.28;;;7.13;78.53
57192;BME280;43052;52.588;13.396;2022-09-21T03:27:12;102034.66;;;7.18;78.68
57192;BME280;43052;52.588;13.396;2022-09-21T03:29:38;102043.50;;;7.24;78.19
57192;BME280;43052;52.588;13.396;2022-09-21T03:32:04;102037.38;;;7.21;78.43
57192;BME280;43052;52.588;13.396;2022-09-21T03:34:29;102047.03;;;7.26;78.51
57192;BME280;43052;52.588;13.396;2022-09-21T03:36:55;102041.78;;;7.24;78.55
57192;BME280;43052;52.588;13.396;2022-09-21T03:39:20;102042.75;;;7.28;78.63
57192;BME280;43052;52.588;13.396;2022-09-21T03:41:45;102041.78;;;7.24;78.63
57192;BME280;43052;52.588;13.396;2022-09-21T03:44:11;102056.66;;;7.28;78.34
57192;BME280;43052;52.588;13.396;2022-09-21T03:46:36;102037.41;;;7.23;78.42
57192;BME280;43052;52.588;13.396;2022-09-21T03:49:02;102051.34;;;7.25;78.43
57192;BME280;43052;52.588;13.396;2022-09-21T03:51:27;102050.38;;;7.21;78.32
57192;BME280;43052;52.588;13.396;2022-09-21T03:53:55;102056.22;;;7.13;78.39
57192;BME280;43052;52.588;13.396;2022-09-21T03:56:20;102050.75;;;7.03;78.02
57192;BME280;43052;52.588;13.396;2022-09-21T03:58:46;102054.81;;;6.95;78.37
57192;BME280;43052;52.588;13.396;2022-09-21T04:01:11;102059.91;;;6.90;78.50
57192;BME280;43052;52.588;13.396;2022-09-21T04:03:36;102053.56;;;6.82;78.29
57192;BME280;43052;52.588;13.396;2022-09-21T04:06:07;102050.75;;;6.76;78.40
57192;BME280;43052;52.588;13.396;2022-09-21T04:08:33;102060.13;;;6.69;78.29
57192;BME280;43052;52.588;13.396;2022-09-21T04:10:58;102066.84;;;6.63;78.73
57192;BME280;43052;52.588;13.396;2022-09-21T04:13:24;102064.94;;;6.58;78.47
57192;BME280;43052;52.588;13.396;2022-09-21T04:15:49;102075.34;;;6.58;78.72
57192;BME280;43052;52.588;13.396;2022-09-21T04:18:14;102068.34;;;6.56;78.41
57192;BME280;43052;52.588;13.396;2022-09-21T04:20:39;102067.38;;;6.52;78.68
57192;BME280;43052;52.588;13.396;2022-09-21T04:23:05;102058.41;;;6.42;78.68
57192;BME280;43052;52.588;13.396;2022-09-21T04:25:31;102059.31;;;6.45;78.78
57192;BME280;43052;52.588;13.396;2022-09-21T04:27:57;102063.63;;;6.44;78.96
57192;BME280;43052;52.588;13.396;2022-09-21T04:30:22;102061.00;;;6.42;78.67
57192;BME280;43052;52.588;13.396;2022-09-21T04:32:48;102067.84;;;6.40;78.71
57192;BME280;43052;52.588;13.396;2022-09-21T04:35:13;102062.47;;;6.34;78.71
57192;BME280;43052;52.588;13.396;2022-09-21T04:37:38;102054.53;;;6.30;79.03
57192;BME280;43052;52.588;13.396;2022-09-21T04:40:04;102060.59;;;6.30;79.23
57192;BME280;43052;52.588;13.396;2022-09-21T04:42:29;102061.38;;;6.27;79.16
57192;BME280;43052;52.588;13.396;2022-09-21T04:44:55;102065.66;;;6.27;79.37
57192;BME280;43052;52.588;13.396;2022-09-21T04:47:20;102057.72;;;6.22;79.55
57192;BME280;43052;52.588;13.396;2022-09-21T04:49:47;102071.78;;;6.27;79.46
57192;BME280;43052;52.588;13.396;2022-09-21T04:52:12;102066.63;;;6.29;79.22
57192;BME280;43052;52.588;13.396;2022-09-21T04:54:38;102071.84;;;6.31;79.15
57192;BME280;43052;52.588;13.396;2022-09-21T04:57:03;102071.03;;;6.32;79.01
57192;BME280;43052;52.588;13.396;2022-09-21T04:59:28;102071.03;;;6.32;79.17
57192;BME280;43052;52.588;13.396;2022-09-21T05:01:54;102073.69;;;6.33;79.35
57192;BME280;43052;52.588;13.396;2022-09-21T05:04:19;102069.50;;;6.38;79.09
57192;BME280;43052;52.588;13.396;2022-09-21T05:06:44;102070.41;;;6.39;79.21
57192;BME280;43052;52.588;13.396;2022-09-21T05:09:09;102072.94;;;6.37;79.13
57192;BME280;43052;52.588;13.396;2022-09-21T05:11:53;102082.78;;;6.46;79.34
57192;BME280;43052;52.588;13.396;2022-09-21T05:14:18;102084.78;;;6.55;79.50
57192;BME280;43052;52.588;13.396;2022-09-21T05:16:44;102084.91;;;6.59;79.33
57192;BME280;43052;52.588;13.396;2022-09-21T05:19:09;102090.53;;;6.72;79.34
57192;BME280;43052;52.588;13.396;2022-09-21T05:21:34;102096.81;;;6.79;79.30
57192;BME280;43052;52.588;13.396;2022-09-21T05:24:00;102098.78;;;6.87;79.04
57192;BME280;43052;52.588;13.396;2022-09-21T05:26:25;102095.66;;;6.98;78.82
57192;BME280;43052;52.588;13.396;2022-09-21T05:28:51;102100.31;;;7.08;78.69
57192;BME280;43052;52.588;13.396;2022-09-21T05:33:47;102097.31;;;7.25;78.58
57192;BME280;43052;52.588;13.396;2022-09-21T05:38:51;102104.31;;;7.58;78.66
57192;BME280;43052;52.588;13.396;2022-09-21T05:41:17;102101.16;;;7.68;78.50
57192;BME280;43052;52.588;13.396;2022-09-21T05:43:42;102109.66;;;7.94;78.37
57192;BME280;43052;52.588;13.396;2022-09-21T05:46:17;102104.06;;;8.12;78.12
57192;BME280;43052;52.588;13.396;2022-09-21T05:48:53;102108.28;;;8.42;77.90
57192;BME280;43052;52.588;13.396;2022-09-21T05:51:37;102109.84;;;8.69;77.62
57192;BME280;43052;52.588;13.396;2022-09-21T05:57:09;102108.47;;;9.23;76.53
57192;BME280;43052;52.588;13.396;2022-09-21T05:59:50;102108.88;;;9.44;76.04
57192;BME280;43052;52.588;13.396;2022-09-21T06:05:17;102107.88;;;9.81;75.58
57192;BME280;43052;52.588;13.396;2022-09-21T06:07:42;102107.19;;;9.92;74.98
57192;BME280;43052;52.588;13.396;2022-09-21T06:10:11;102109.06;;;9.99;75.25
57192;BME280;43052;52.588;13.396;2022-09-21T06:12:37;102112.78;;;10.12;75.15
57192;BME280;43052;52.588;13.396;2022-09-21T06:15:04;102118.06;;;10.15;75.03
57192;BME280;43052;52.588;13.396;2022-09-21T06:17:31;102117.38;;;10.25;74.73
57192;BME280;43052;52.588;13.396;2022-09-21T06:19:57;102120.16;;;10.34;75.26
57192;BME280;43052;52.588;13.396;2022-09-21T06:22:22;102116.81;;;10.42;74.34
57192;BME280;43052;52.588;13.396;2022-09-21T06:24:47;102117.00;;;10.54;74.16
57192;BME280;43052;52.588;13.396;2022-09-21T06:27:12;102119.84;;;10.68;73.92
57192;BME280;43052;52.588;13.396;2022-09-21T06:29:38;102127.00;;;10.80;73.84
57192;BME280;43052;52.588;13.396;2022-09-21T06:32:03;102130.72;;;10.93;73.66
57192;BME280;43052;52.588;13.396;2022-09-21T06:34:29;102126.56;;;11.09;73.50
57192;BME280;43052;52.588;13.396;2022-09-21T06:36:55;102130.28;;;11.26;73.19
57192;BME280;43052;52.588;13.396;2022-09-21T06:39:20;102122.56;;;11.37;72.71
57192;BME280;43052;52.588;13.396;2022-09-21T06:41:45;102133.28;;;11.54;72.54
57192;BME280;43052;52.588;13.396;2022-09-21T06:44:10;102132.59;;;11.71;72.16
57192;BME280;43052;52.588;13.396;2022-09-21T06:46:36;102130.13;;;11.83;71.84
57192;BME280;43052;52.588;13.396;2022-09-21T06:49:01;102139.84;;;11.97;71.71
57192;BME280;43052;52.588;13.396;2022-09-21T06:51:26;102138.31;;;12.11;71.28
57192;BME280;43052;52.588;13.396;2022-09-21T06:53:55;102133.25;;;12.33;71.03
57192;BME280;43052;52.588;13.396;2022-09-21T06:56:21;102131.78;;;12.63;70.38
57192;BME280;43052;52.588;13.396;2022-09-21T06:58:46;102129.31;;;12.89;70.02
57192;BME280;43052;52.588;13.396;2022-09-21T07:01:13;102132.16;;;13.25;69.55
57192;BME280;43052;52.588;13.396;2022-09-21T07:03:40;102134.13;;;13.68;68.54
57192;BME280;43052;52.588;13.396;2022-09-21T07:06:06;102132.50;;;14.42;67.72
57192;BME280;43052;52.588;13.396;2022-09-21T07:08:32;102134.19;;;15.12;66.12
57192;BME280;43052;52.588;13.396;2022-09-21T07:10:58;102139.38;;;15.43;64.23
57192;BME280;43052;52.588;13.396;2022-09-21T07:13:24;102138.44;;;15.59;63.41
57192;BME280;43052;52.588;13.396;2022-09-21T07:15:50;102128.66;;;15.81;62.51
57192;BME280;43052;52.588;13.396;2022-09-21T07:18:15;102138.25;;;16.00;61.14
57192;BME280;43052;52.588;13.396;2022-09-21T07:20:40;102145.22;;;16.11;61.23
57192;BME280;43052;52.588;13.396;2022-09-21T07:23:12;102136.28;;;16.29;60.83
57192;BME280;43052;52.588;13.396;2022-09-21T07:25:42;102138.69;;;16.60;61.27
57192;BME280;43052;52.588;13.396;2022-09-21T07:28:08;102142.66;;;17.06;59.83
57192;BME280;43052;52.588;13.396;2022-09-21T07:30:35;102142.34;;;17.34;58.66
57192;BME280;43052;52.588;13.396;2022-09-21T07:33:01;102140.25;;;17.60;58.27
57192;BME280;43052;52.588;13.396;2022-09-21T07:35:26;102135.25;;;18.07;56.67
57192;BME280;43052;52.588;13.396;2022-09-21T07:37:51;102135.25;;;19.95;53.27
57192;BME280;43052;52.588;13.396;2022-09-21T07:40:17;102130.88;;;21.32;49.34
57192;BME280;43052;52.588;13.396;2022-09-21T07:42:42;102126.69;;;21.53;49.06
57192;BME280;43052;52.588;13.396;2022-09-21T07:45:09;102137.31;;;21.23;49.14
57192;BME280;43052;52.588;13.396;2022-09-21T07:47:34;102134.44;;;21.00;48.09
57192;BME280;43052;52.588;13.396;2022-09-21T07:49:59;102144.56;;;21.18;47.57
57192;BME280;43052;52.588;13.396;2022-09-21T07:52:25;102140.38;;;22.54;45.87
57192;BME280;43052;52.588;13.396;2022-09-21T07:54:51;102144.63;;;22.33;44.89
57192;BME280;43052;52.588;13.396;2022-09-21T07:57:16;102141.09;;;21.76;45.25
57192;BME280;43052;52.588;13.396;2022-09-21T08:00:00;102140.75;;;21.27;47.03
57192;BME280;43052;52.588;13.396;2022-09-21T08:02:25;102140.88;;;21.22;46.59
57192;BME280;43052;52.588;13.396;2022-09-21T08:04:50;102138.19;;;21.24;46.10
57192;BME280;43052;52.588;13.396;2022-09-21T08:07:16;102145.16;;;20.96;47.45
57192;BME280;43052;52.588;13.396;2022-09-21T08:09:41;102145.94;;;20.65;46.97
57192;BME280;43052;52.588;13.396;2022-09-21T08:12:07;102154.78;;;20.31;47.64
57192;BME280;43052;52.588;13.396;2022-09-21T08:14:33;102148.44;;;19.99;48.22
57192;BME280;43052;52.588;13.396;2022-09-21T08:16:58;102153.25;;;19.80;48.56
57192;BME280;43052;52.588;13.396;2022-09-21T08:19:23;102153.16;;;19.86;48.59
57192;BME280;43052;52.588;13.396;2022-09-21T08:21:50;102152.88;;;19.99;48.46
57192;BME280;43052;52.588;13.396;2022-09-21T08:24:16;102150.22;;;19.99;48.39
57192;BME280;43052;52.588;13.396;2022-09-21T08:26:41;102151.28;;;19.92;48.26
57192;BME280;43052;52.588;13.396;2022-09-21T08:29:06;102150.88;;;19.68;49.27
57192;BME280;43052;52.588;13.396;2022-09-21T08:31:32;102158.53;;;19.82;49.42
57192;BME280;43052;52.588;13.396;2022-09-21T08:33:58;102159.50;;;20.18;48.69
57192;BME280;43052;52.588;13.396;2022-09-21T08:36:24;102156.94;;;20.50;47.76
57192;BME280;43052;52.588;13.396;2022-09-21T08:38:50;102159.41;;;20.58;47.45
57192;BME280;43052;52.588;13.396;2022-09-21T08:44:27;102160.31;;;20.57;48.23
57192;BME280;43052;52.588;13.396;2022-09-21T08:47:02;102158.22;;;20.70;47.91
57192;BME280;43052;52.588;13.396;2022-09-21T08:49:30;102143.88;;;20.77;47.30
57192;BME280;43052;52.588;13.396;2022-09-21T08:52:02;102166.84;;;20.81;47.65
57192;BME280;43052;52.588;13.396;2022-09-21T08:54:35;102159.28;;;20.98;47.58
57192;BME280;43052;52.588;13.396;2022-09-21T08:57:02;102154.94;;;21.57;47.06
57192;BME280;43052;52.588;13.396;2022-09-21T08:59:28;102158.34;;;22.49;44.80
57192;BME280;43052;52.588;13.396;2022-09-21T09:02:04;102157.81;;;23.87;41.63
57192;BME280;43052;52.588;13.396;2022-09-21T09:05:00;102160.50;;;24.95;39.61
57192;BME280;43052;52.588;13.396;2022-09-21T09:08:04;102157.81;;;25.34;38.20
57192;BME280;43052;52.588;13.396;2022-09-21T09:10:41;102160.72;;;26.43;36.70
57192;BME280;43052;52.588;13.396;2022-09-21T09:16:44;102154.50;;;27.78;34.00
57192;BME280;43052;52.588;13.396;2022-09-21T09:19:23;102157.34;;;29.98;31.24
57192;BME280;43052;52.588;13.396;2022-09-21T09:21:54;102149.50;;;34.18;25.41
57192;BME280;43052;52.588;13.396;2022-09-21T09:24:40;102161.59;;;37.34;21.11
57192;BME280;43052;52.588;13.396;2022-09-21T09:27:22;102158.66;;;39.41;19.14
57192;BME280;43052;52.588;13.396;2022-09-21T09:29:58;102160.44;;;40.75;18.46
57192;BME280;43052;52.588;13.396;2022-09-21T09:32:48;102158.78;;;42.00;17.25
57192;BME280;43052;52.588;13.396;2022-09-21T09:38:10;102161.00;;;43.32;16.01
57192;BME280;43052;52.588;13.396;2022-09-21T09:40:52;102167.59;;;43.75;15.21
57192;BME280;43052;52.588;13.396;2022-09-21T09:43:39;102167.47;;;44.05;14.45
57192;BME280;43052;52.588;13.396;2022-09-21T09:49:00;102164.69;;;44.90;13.98
57192;BME280;43052;52.588;13.396;2022-09-21T09:51:28;102161.31;;;44.95;13.25
57192;BME280;43052;52.588;13.396;2022-09-21T09:53:58;102160.06;;;45.04;13.95
57192;BME280;43052;52.588;13.396;2022-09-21T09:56:23;102165.84;;;45.16;12.90
57192;BME280;43052;52.588;13.396;2022-09-21T09:58:53;102160.78;;;45.19;12.88
57192;BME280;43052;52.588;13.396;2022-09-21T10:01:39;102154.88;;;44.81;13.05
57192;BME280;43052;52.588;13.396;2022-09-21T10:04:08;102156.63;;;44.25;13.85
57192;BME280;43052;52.588;13.396;2022-09-21T10:06:33;102145.25;;;43.11;14.02
57192;BME280;43052;52.588;13.396;2022-09-21T10:08:59;102154.22;;;42.83;14.39
57192;BME280;43052;52.588;13.396;2022-09-21T10:11:34;102148.06;;;39.38;15.79
57192;BME280;43052;52.588;13.396;2022-09-21T10:14:08;102159.06;;;35.38;19.44
57192;BME280;43052;52.588;13.396;2022-09-21T10:16:39;102159.53;;;35.43;20.39
57192;BME280;43052;52.588;13.396;2022-09-21T10:19:05;102149.16;;;36.46;18.98
57192;BME280;43052;52.588;13.396;2022-09-21T10:21:39;102153.34;;;34.15;21.10
57192;BME280;43052;52.588;13.396;2022-09-21T10:24:16;102151.34;;;34.17;21.75
57192;BME280;43052;52.588;13.396;2022-09-21T10:26:50;102151.66;;;33.25;21.95
57192;BME280;43052;52.588;13.396;2022-09-21T10:29:29;102147.34;;;31.31;23.50
57192;BME280;43052;52.588;13.396;2022-09-21T10:31:57;102148.31;;;32.29;23.65
57192;BME280;43052;52.588;13.396;2022-09-21T10:34:24;102145.34;;;34.77;20.75
57192;BME280;43052;52.588;13.396;2022-09-21T10:36:51;102137.19;;;34.35;20.79
57192;BME280;43052;52.588;13.396;2022-09-21T10:39:24;102141.75;;;36.09;20.17
57192;BME280;43052;52.588;13.396;2022-09-21T10:42:09;102136.56;;;37.03;18.53
57192;BME280;43052;52.588;13.396;2022-09-21T10:44:43;102126.63;;;34.53;20.65
57192;BME280;43052;52.588;13.396;2022-09-21T10:47:28;102144.31;;;31.36;23.17
57192;BME280;43052;52.588;13.396;2022-09-21T10:49:59;102128.69;;;29.27;25.93
57192;BME280;43052;52.588;13.396;2022-09-21T10:52:33;102137.81;;;27.56;28.69
57192;BME280;43052;52.588;13.396;2022-09-21T10:54:59;102128.53;;;26.25;28.92
57192;BME280;43052;52.588;13.396;2022-09-21T10:57:26;102111.91;;;25.44;30.07
57192;BME280;43052;52.588;13.396;2022-09-21T10:59:53;102118.78;;;24.70;30.84
57192;BME280;43052;52.588;13.396;2022-09-21T11:05:03;102129.06;;;23.24;34.57
57192;BME280;43052;52.588;13.396;2022-09-21T11:07:36;102119.34;;;22.72;36.20
57192;BME280;43052;52.588;13.396;2022-09-21T11:12:52;102112.94;;;21.97;37.83
57192;BME280;43052;52.588;13.396;2022-09-21T11:15:31;102117.00;;;21.81;38.37
57192;BME280;43052;52.588;13.396;2022-09-21T11:20:58;102119.47;;;21.57;39.11
57192;BME280;43052;52.588;13.396;2022-09-21T11:26:11;102128.00;;;21.38;39.55
57192;BME280;43052;52.588;13.396;2022-09-21T11:28:48;102122.25;;;21.24;40.55
57192;BME280;43052;52.588;13.396;2022-09-21T11:31:47;102123.31;;;21.17;40.86
57192;BME280;43052;52.588;13.396;2022-09-21T11:37:21;102119.78;;;21.16;39.09
57192;BME280;43052;52.588;13.396;2022-09-21T11:43:21;102121.28;;;20.95;40.68
57192;BME280;43052;52.588;13.396;2022-09-21T11:45:59;102123.66;;;20.71;41.18
57192;BME280;43052;52.588;13.396;2022-09-21T11:57:32;102115.06;;;20.25;41.70
57192;BME280;43052;52.588;13.396;2022-09-21T12:00:19;102116.41;;;20.06;41.90
57192;BME280;43052;52.588;13.396;2022-09-21T12:03:09;102111.03;;;19.69;42.14
57192;BME280;43052;52.588;13.396;2022-09-21T12:06:12;102113.88;;;19.18;43.34
57192;BME280;43052;52.588;13.396;2022-09-21T12:11:37;102106.47;;;18.88;43.64
57192;BME280;43052;52.588;13.396;2022-09-21T12:14:28;102102.94;;;18.89;43.35
57192;BME280;43052;52.588;13.396;2022-09-21T12:19:46;102084.34;;;18.92;43.39
57192;BME280;43052;52.588;13.396;2022-09-21T12:22:25;102093.94;;;19.00;43.66
57192;BME280;43052;52.588;13.396;2022-09-21T12:24:56;102097.63;;;18.89;43.75
57192;BME280;43052;52.588;13.396;2022-09-21T12:27:38;102099.72;;;18.72;44.51
57192;BME280;43052;52.588;13.396;2022-09-21T12:30:15;102100.97;;;18.51;45.83
57192;BME280;43052;52.588;13.396;2022-09-21T12:32:46;102096.22;;;18.20;46.48
57192;BME280;43052;52.588;13.396;2022-09-21T12:35:22;102098.19;;;18.05;47.15
57192;BME280;43052;52.588;13.396;2022-09-21T12:37:56;102091.28;;;17.96;47.31
57192;BME280;43052;52.588;13.396;2022-09-21T12:40:30;102080.06;;;17.77;47.90
57192;BME280;43052;52.588;13.396;2022-09-21T12:43:12;102096.91;;;17.70;48.57
57192;BME280;43052;52.588;13.396;2022-09-21T12:45:50;102096.16;;;17.62;48.87
57192;BME280;43052;52.588;13.396;2022-09-21T12:51:05;102088.16;;;17.66;48.95
57192;BME280;43052;52.588;13.396;2022-09-21T12:53:35;102087.25;;;17.67;49.09
57192;BME280;43052;52.588;13.396;2022-09-21T12:56:05;102089.84;;;17.72;48.93
57192;BME280;43052;52.588;13.396;2022-09-21T12:59:06;102088.16;;;17.66;49.05
57192;BME280;43052;52.588;13.396;2022-09-21T13:01:57;102078.59;;;17.56;49.28
57192;BME280;43052;52.588;13.396;2022-09-21T13:04:33;102069.97;;;17.43;49.36
57192;BME280;43052;52.588;13.396;2022-09-21T13:07:46;102074.31;;;17.46;49.43
57192;BME280;43052;52.588;13.396;2022-09-21T13:10:29;102069.13;;;17.39;48.68
57192;BME280;43052;52.588;13.396;2022-09-21T13:13:00;102070.91;;;17.39;48.10
57192;BME280;43052;52.588;13.396;2022-09-21T13:15:32;102068.16;;;17.47;48.41
57192;BME280;43052;52.588;13.396;2022-09-21T13:18:06;102066.34;;;17.49;48.94
57192;BME280;43052;52.588;13.396;2022-09-21T13:20:41;102067.19;;;17.52;49.04
57192;BME280;43052;52.588;13.396;2022-09-21T13:23:15;102069.78;;;17.57;48.52
57192;BME280;43052;52.588;13.396;2022-09-21T13:25:46;102070.66;;;17.56;48.27
57192;BME280;43052;52.588;13.396;2022-09-21T13:30:44;102074.47;;;17.36;48.45
57192;BME280;43052;52.588;13.396;2022-09-21T13:38:42;102068.31;;;17.33;48.52
57192;BME280;43052;52.588;13.396;2022-09-21T13:49:03;102056.91;;;17.31;48.49
57192;BME280;43052;52.588;13.396;2022-09-21T13:51:33;102056.03;;;17.32;48.44
57192;BME280;43052;52.588;13.396;2022-09-21T13:54:00;102044.59;;;17.30;48.46
57192;BME280;43052;52.588;13.396;2022-09-21T13:56:27;102058.63;;;17.36;48.19
57192;BME280;43052;52.588;13.396;2022-09-21T13:58:55;102043.69;;;17.29;48.38
57192;BME280;43052;52.588;13.396;2022-09-21T14:01:33;102049.81;;;17.34;48.46
57192;BME280;43052;52.588;13.396;2022-09-21T14:04:14;102057.75;;;17.33;48.46
57192;BME280;43052;52.588;13.396;2022-09-21T14:06:43;102047.19;;;17.34;47.48
57192;BME280;43052;52.588;13.396;2022-09-21T14:09:24;102049.00;;;17.29;46.83
57192;BME280;43052;52.588;13.396;2022-09-21T14:11:59;102046.53;;;17.17;46.80
57192;BME280;43052;52.588;13.396;2022-09-21T14:14:32;102035.28;;;16.98;47.58
57192;BME280;43052;52.588;13.396;2022-09-21T14:16:59;102041.50;;;16.90;48.22
57192;BME280;43052;52.588;13.396;2022-09-21T14:24:45;102038.16;;;16.76;48.95
57192;BME280;43052;52.588;13.396;2022-09-21T14:27:31;102041.59;;;16.84;45.85
57192;BME280;43052;52.588;13.396;2022-09-21T14:30:17;102023.19;;;16.76;45.93
57192;BME280;43052;52.588;13.396;2022-09-21T14:32:51;102039.84;;;16.83;46.25
57192;BME280;43052;52.588;13.396;2022-09-21T14:35:22;102038.09;;;16.82;46.68
57192;BME280;43052;52.588;13.396;2022-09-21T14:37:51;102028.41;;;16.81;47.29